Conditions actuelles
Plutôt dégagé




Pression
30.06 (inHG) - 1017.92 (mb)
Visibilité

10.0 (km) - 6.2 (miles)
   Température
15  °C
59°F
4  °C
Point de rosée
48  %
 Humidité
   Vitesse du vent
14  km/h
8  kts
9  mph
4.0  m/s
   Direction du vent
 340°
Nord Nord
Ouest
   Données d'aéroport
LFBU
Location Angoulême-Brie-Champniers 6 km (3.73 mi)
Metar :LFBU 281630Z AUTO 34008KT 310V010 CAVOK 15/04 Q1018
28-03-2020 17:30:00
   Information brute de métar
Le METAR brut est le format le plus répandu dans le monde pour la transmission de données météorologiques d'observation. Il est hautement standardisé par l'Organisation de l'aviation civile internationale (OACI), ce qui lui permet d'être compris dans la plupart des pays.
   API Info
Données fournies par
https://www.checkwx.com/weather/LFBU
   © Info
Les scripts CSS / SVG / PHP ont été développés par weather34.com pour une utilisation dans le modèle weather34 © 2015-2020

Guide Info fourni par Metar-Wikipedia